Terminal Aerodrome Forecast
Issued by NWS

Home | Current Version | Previous Version | Text Only | Print | Product List | Glossary On
Versions: 1 2 3 4 5 6 7 8 9 10 11 12 13 14 15
000
FTUS42 KTAE 261720
TAFABY
TAF
KABY 261720Z 2618/2718 08007KT P6SM SKC
     FM270000 12003KT P6SM SCT150
     FM271400 15008KT P6SM BKN120=

USA.gov is the U.S. government's official web portal to all federal, state and local government web resources and services.